createdAt,value
2022-11-25T00:01:20.031Z,4.40
2022-11-25T00:03:47.664Z,4.32
2022-11-25T00:06:15.508Z,4.13
2022-11-25T00:08:43.225Z,4.35
2022-11-25T00:11:10.967Z,3.58
2022-11-25T00:13:38.158Z,4.45
2022-11-25T00:16:07.464Z,4.05
2022-11-25T00:18:35.210Z,3.25
2022-11-25T00:21:09.183Z,3.67
2022-11-25T00:23:36.696Z,3.97
2022-11-25T00:26:14.488Z,3.72
2022-11-25T00:28:42.641Z,5.28
2022-11-25T00:31:11.934Z,3.83
2022-11-25T00:33:38.729Z,3.85
2022-11-25T00:36:07.017Z,3.70
2022-11-25T00:38:33.537Z,4.50
2022-11-25T00:41:18.783Z,4.35
2022-11-25T00:44:03.747Z,4.10
2022-11-25T00:46:30.167Z,4.57
2022-11-25T00:48:56.523Z,4.72
2022-11-25T00:51:22.923Z,3.70
2022-11-25T00:53:49.327Z,5.00
2022-11-25T00:56:15.831Z,4.57
2022-11-25T00:58:43.087Z,4.68
2022-11-25T01:01:09.797Z,3.92
2022-11-25T01:03:39.345Z,3.75
2022-11-25T01:06:08.145Z,4.80
2022-11-25T01:08:35.480Z,3.67
2022-11-25T01:11:03.916Z,4.57
2022-11-25T01:13:30.274Z,3.85
2022-11-25T01:15:56.673Z,4.28
2022-11-25T01:18:23.444Z,4.13
2022-11-25T01:20:49.810Z,3.40
2022-11-25T01:23:16.219Z,4.00
2022-11-25T01:25:42.595Z,4.05
2022-11-25T01:28:08.969Z,4.65
2022-11-25T01:30:40.926Z,3.75
2022-11-25T01:33:07.611Z,4.28
2022-11-25T01:35:37.302Z,3.95
2022-11-25T01:38:03.688Z,4.53
2022-11-25T01:40:30.087Z,3.80
2022-11-25T01:42:56.639Z,4.18
2022-11-25T01:45:25.565Z,3.85
2022-11-25T01:47:57.200Z,3.70
2022-11-25T01:50:24.786Z,4.40
2022-11-25T01:52:53.217Z,3.60
2022-11-25T01:55:22.384Z,3.78
2022-11-25T01:57:52.817Z,3.47
2022-11-25T02:00:19.746Z,4.07
2022-11-25T02:02:48.286Z,4.40
2022-11-25T02:05:17.210Z,3.70
2022-11-25T02:07:46.705Z,4.93
2022-11-25T02:10:16.885Z,6.13
2022-11-25T02:12:44.884Z,4.53
2022-11-25T02:15:11.701Z,3.85
2022-11-25T02:17:38.476Z,3.40
2022-11-25T02:20:16.535Z,3.88
2022-11-25T02:22:57.973Z,5.10
2022-11-25T02:25:29.090Z,3.92
2022-11-25T02:28:00.398Z,4.22
2022-11-25T02:30:26.993Z,3.88
2022-11-25T02:32:53.442Z,3.83
2022-11-25T02:35:34.973Z,4.85
2022-11-25T02:38:15.531Z,4.82
2022-11-25T02:40:59.043Z,4.20
2022-11-25T02:43:25.663Z,3.88
2022-11-25T02:46:03.129Z,4.35
2022-11-25T02:49:00.770Z,4.00
2022-11-25T02:51:20.511Z,4.60
2022-11-25T02:53:47.072Z,5.05
2022-11-25T02:56:14.208Z,4.75
2022-11-25T02:58:40.761Z,5.88
2022-11-25T03:01:07.387Z,4.53
2022-11-25T03:03:34.007Z,4.45
2022-11-25T03:06:00.391Z,4.72
2022-11-25T03:08:26.773Z,4.15
2022-11-25T03:10:53.283Z,4.50
2022-11-25T03:13:19.968Z,3.90
2022-11-25T03:15:46.406Z,4.78
2022-11-25T03:18:12.878Z,5.85
2022-11-25T03:20:39.310Z,4.97
2022-11-25T03:23:06.351Z,4.32
2022-11-25T03:25:33.362Z,5.30
2022-11-25T03:27:59.746Z,4.25
2022-11-25T03:30:27.739Z,4.18
2022-11-25T03:32:54.327Z,4.35
2022-11-25T03:35:20.985Z,5.28
2022-11-25T03:37:47.429Z,4.55
2022-11-25T03:40:14.936Z,5.20
2022-11-25T03:42:42.245Z,4.80
2022-11-25T03:45:10.382Z,4.45
2022-11-25T03:47:36.839Z,4.50
2022-11-25T03:50:03.852Z,4.68
2022-11-25T03:52:30.234Z,3.60
2022-11-25T03:54:56.632Z,3.78
2022-11-25T03:57:23.182Z,5.32
2022-11-25T03:59:49.645Z,3.75
2022-11-25T04:02:16.081Z,3.88
2022-11-25T04:04:42.855Z,3.95
2022-11-25T04:07:09.282Z,4.80
2022-11-25T04:09:35.693Z,4.55
2022-11-25T04:12:20.571Z,5.75
2022-11-25T04:14:46.970Z,4.47
2022-11-25T04:17:13.365Z,4.05
2022-11-25T04:19:39.754Z,5.72
2022-11-25T04:22:06.131Z,5.40
2022-11-25T04:24:32.594Z,4.40
2022-11-25T04:26:59.134Z,4.82
2022-11-25T04:29:25.607Z,5.10
2022-11-25T04:31:51.987Z,6.57
2022-11-25T04:34:18.431Z,4.82
2022-11-25T04:36:44.795Z,4.95
2022-11-25T04:39:11.181Z,5.25
2022-11-25T04:41:37.652Z,4.88
2022-11-25T04:44:04.231Z,5.15
2022-11-25T04:46:36.251Z,5.57
2022-11-25T04:49:02.841Z,5.35
2022-11-25T04:51:29.299Z,5.38
2022-11-25T04:53:55.677Z,4.93
2022-11-25T04:56:22.351Z,5.65
2022-11-25T04:59:07.172Z,5.20
2022-11-25T05:01:33.621Z,5.82
2022-11-25T05:04:00.062Z,5.53
2022-11-25T05:06:26.444Z,6.97
2022-11-25T05:08:52.858Z,6.45
2022-11-25T05:11:19.288Z,5.50
2022-11-25T05:13:45.707Z,5.90
2022-11-25T05:16:12.370Z,5.63
2022-11-25T05:18:38.795Z,7.43
2022-11-25T05:21:05.419Z,5.75
2022-11-25T05:23:32.009Z,5.05
2022-11-25T05:26:00.546Z,5.90
2022-11-25T05:28:27.686Z,6.22
2022-11-25T05:30:54.354Z,6.13
2022-11-25T05:33:20.915Z,7.25
2022-11-25T05:35:55.202Z,6.07
2022-11-25T05:38:21.764Z,6.57
2022-11-25T05:40:48.194Z,6.93
2022-11-25T05:43:14.573Z,7.63
2022-11-25T05:45:41.278Z,6.13
2022-11-25T05:48:07.699Z,7.65
2022-11-25T05:50:34.083Z,7.47
2022-11-25T05:53:00.468Z,7.20
2022-11-25T05:55:26.850Z,7.28
2022-11-25T05:57:53.435Z,7.10
2022-11-25T06:00:25.025Z,7.53
2022-11-25T06:02:52.941Z,7.05
2022-11-25T06:05:19.757Z,7.18
2022-11-25T06:07:46.194Z,5.68
2022-11-25T06:10:13.231Z,7.68
2022-11-25T06:12:39.656Z,6.82
2022-11-25T06:15:06.659Z,8.00
2022-11-25T06:17:33.032Z,7.78
2022-11-25T06:19:59.591Z,9.15
2022-11-25T06:22:25.983Z,8.52
2022-11-25T06:25:00.446Z,7.40
2022-11-25T06:27:43.963Z,7.47
2022-11-25T06:30:16.279Z,8.05
2022-11-25T06:32:42.991Z,7.40
2022-11-25T06:35:09.490Z,8.52
2022-11-25T06:37:35.896Z,8.05
2022-11-25T06:40:02.968Z,9.13
2022-11-25T06:42:29.321Z,9.18
2022-11-25T06:44:55.689Z,7.15
2022-11-25T06:47:22.092Z,7.38
2022-11-25T06:49:49.114Z,6.90
2022-11-25T06:52:15.488Z,6.97
2022-11-25T06:54:41.876Z,7.82
2022-11-25T06:57:09.372Z,7.45
2022-11-25T06:59:35.959Z,9.45
2022-11-25T07:02:02.631Z,7.47
2022-11-25T07:04:29.153Z,7.38
2022-11-25T07:06:55.605Z,7.53
2022-11-25T07:09:22.495Z,8.73
2022-11-25T07:11:49.089Z,8.95
2022-11-25T07:14:16.924Z,7.47
2022-11-25T07:16:45.059Z,7.50
2022-11-25T07:19:13.337Z,8.77
2022-11-25T07:21:39.830Z,7.97
2022-11-25T07:24:07.700Z,8.25
2022-11-25T07:26:36.215Z,8.27
2022-11-25T07:29:06.382Z,7.72
2022-11-25T07:31:40.284Z,7.43
2022-11-25T07:34:14.603Z,8.32
2022-11-25T07:36:41.549Z,9.05
2022-11-25T07:39:11.979Z,8.82
2022-11-25T07:41:38.687Z,9.02
2022-11-25T07:44:06.175Z,10.23
2022-11-25T07:46:39.416Z,8.02
2022-11-25T07:49:08.426Z,8.88
2022-11-25T07:51:37.267Z,9.02
2022-11-25T07:54:06.605Z,8.82
2022-11-25T07:56:37.861Z,7.65
2022-11-25T07:59:05.691Z,8.52
2022-11-25T08:01:32.148Z,8.18
2022-11-25T08:03:58.832Z,8.23
2022-11-25T08:06:28.103Z,9.32
2022-11-25T08:08:55.703Z,8.82
2022-11-25T08:11:23.857Z,8.50
2022-11-25T08:13:50.314Z,8.27
2022-11-25T08:16:19.075Z,7.32
2022-11-25T08:18:47.194Z,8.80
2022-11-25T08:21:14.690Z,8.07
2022-11-25T08:23:48.462Z,7.93
2022-11-25T08:26:27.513Z,8.88
2022-11-25T08:28:54.244Z,7.60
2022-11-25T08:31:26.396Z,8.43
2022-11-25T08:33:53.800Z,8.38
2022-11-25T08:36:20.583Z,10.15
2022-11-25T08:38:48.621Z,9.48
2022-11-25T08:41:20.444Z,8.60
2022-11-25T08:43:46.908Z,8.07
2022-11-25T08:46:16.440Z,8.52
2022-11-25T08:48:43.063Z,9.70
2022-11-25T08:51:12.098Z,9.20
2022-11-25T08:53:39.645Z,8.02
2022-11-25T08:56:06.930Z,8.23
2022-11-25T08:58:33.692Z,7.93
2022-11-25T09:01:00.548Z,8.85
2022-11-25T09:03:27.350Z,9.05
2022-11-25T09:05:54.453Z,8.65
2022-11-25T09:08:21.044Z,9.27
2022-11-25T09:10:47.503Z,8.18
2022-11-25T09:13:13.995Z,8.82
2022-11-25T09:15:40.495Z,9.40
2022-11-25T09:18:08.385Z,7.82
2022-11-25T09:20:37.934Z,8.25
2022-11-25T09:23:04.555Z,7.70
2022-11-25T09:25:31.347Z,8.25
2022-11-25T09:27:58.111Z,8.25
2022-11-25T09:30:25.683Z,8.40
2022-11-25T09:32:53.818Z,6.72
2022-11-25T09:35:21.457Z,8.77
2022-11-25T09:37:48.161Z,7.28
2022-11-25T09:40:36.556Z,8.10
2022-11-25T09:43:45.112Z,8.00
2022-11-25T09:46:43.288Z,8.52
2022-11-25T09:49:12.594Z,6.82
2022-11-25T09:51:48.251Z,6.68
2022-11-25T09:54:21.385Z,7.32
2022-11-25T09:56:52.201Z,5.93
2022-11-25T09:59:33.137Z,6.63
2022-11-25T10:02:02.455Z,6.90
2022-11-25T10:04:47.283Z,7.10
2022-11-25T10:07:38.802Z,6.72
2022-11-25T10:10:07.773Z,8.30
2022-11-25T10:12:38.066Z,6.35
2022-11-25T10:15:08.808Z,8.43
2022-11-25T10:17:50.047Z,5.50
2022-11-25T10:20:25.376Z,5.70
2022-11-25T10:22:54.550Z,5.80
2022-11-25T10:25:24.724Z,6.22
2022-11-25T10:27:54.176Z,6.10
2022-11-25T10:30:23.037Z,6.55
2022-11-25T10:33:02.040Z,6.05
2022-11-25T10:35:39.174Z,6.53
2022-11-25T10:38:15.787Z,7.13
2022-11-25T10:40:48.472Z,7.07
2022-11-25T10:43:15.027Z,7.13
2022-11-25T10:45:49.245Z,5.45
2022-11-25T10:48:44.003Z,7.18
2022-11-25T10:51:19.947Z,6.13
2022-11-25T10:54:26.828Z,6.20
2022-11-25T10:57:04.096Z,6.15
2022-11-25T10:59:34.293Z,6.22
2022-11-25T11:02:19.079Z,5.57
2022-11-25T11:04:54.517Z,6.05
2022-11-25T11:07:21.254Z,5.07
2022-11-25T11:09:50.777Z,5.18
2022-11-25T11:12:25.471Z,4.75
2022-11-25T11:14:53.026Z,6.07
2022-11-25T11:17:36.434Z,5.80
2022-11-25T11:20:27.301Z,4.88
2022-11-25T11:23:13.976Z,4.60
2022-11-25T11:25:42.866Z,5.97
2022-11-25T11:28:37.106Z,4.85
2022-11-25T11:31:25.057Z,4.75
2022-11-25T11:34:04.011Z,5.60
2022-11-25T11:36:54.019Z,5.65
2022-11-25T11:39:35.229Z,6.75
2022-11-25T11:42:17.272Z,5.13
2022-11-25T11:45:25.226Z,5.50
2022-11-25T11:48:00.888Z,5.63
2022-11-25T11:50:32.235Z,6.25
2022-11-25T11:53:09.681Z,5.40
2022-11-25T11:55:43.586Z,5.45
2022-11-25T11:58:33.177Z,5.28
2022-11-25T12:01:11.765Z,5.15
2022-11-25T12:03:41.910Z,6.05
2022-11-25T12:06:10.056Z,4.60
2022-11-25T12:08:45.510Z,4.88
2022-11-25T12:11:18.302Z,4.65
2022-11-25T12:14:05.404Z,4.43
2022-11-25T12:16:34.415Z,5.60
2022-11-25T12:19:11.078Z,4.75
2022-11-25T12:21:43.393Z,4.32
2022-11-25T12:24:21.949Z,4.50
2022-11-25T12:26:57.655Z,4.68
2022-11-25T12:29:44.691Z,5.03
2022-11-25T12:32:30.642Z,4.20
2022-11-25T12:35:03.911Z,4.03
2022-11-25T12:37:44.919Z,5.47
2022-11-25T12:40:17.738Z,4.28
2022-11-25T12:42:45.373Z,4.20
2022-11-25T12:45:22.559Z,3.97
2022-11-25T12:47:49.317Z,4.07
2022-11-25T12:50:26.932Z,5.72
2022-11-25T12:53:16.667Z,4.10
2022-11-25T12:55:44.645Z,3.50
2022-11-25T12:58:32.644Z,3.78
2022-11-25T13:01:16.514Z,4.30
2022-11-25T13:03:50.071Z,4.93
2022-11-25T13:06:22.335Z,3.83
2022-11-25T13:09:16.818Z,3.85
2022-11-25T13:11:55.734Z,4.00
2022-11-25T13:15:05.056Z,4.97
2022-11-25T13:17:36.286Z,4.97
2022-11-25T13:20:24.044Z,5.00
2022-11-25T13:23:05.668Z,5.47
2022-11-25T13:25:32.763Z,3.78
2022-11-25T13:28:03.852Z,4.22
2022-11-25T13:33:12.697Z,5.47
2022-11-25T13:35:46.101Z,3.58
2022-11-25T13:38:30.969Z,4.20
2022-11-25T13:41:23.662Z,4.50
2022-11-25T13:44:02.099Z,5.03
2022-11-25T13:46:28.795Z,4.53
2022-11-25T13:48:55.235Z,4.53
2022-11-25T13:51:24.076Z,4.53
2022-11-25T13:54:01.683Z,4.30
2022-11-25T13:56:32.963Z,4.28
2022-11-25T13:59:13.953Z,4.40
2022-11-25T14:02:19.439Z,4.80
2022-11-25T14:05:18.242Z,4.18
2022-11-25T14:08:07.816Z,4.53
2022-11-25T14:10:51.969Z,4.93
2022-11-25T14:13:36.998Z,5.60
2022-11-25T14:16:11.920Z,4.95
2022-11-25T14:22:30.981Z,5.28
2022-11-25T14:25:23.188Z,4.93
2022-11-25T14:28:03.528Z,4.55
2022-11-25T14:30:30.616Z,6.10
2022-11-25T14:33:01.861Z,4.50
2022-11-25T14:35:45.413Z,6.10
2022-11-25T14:38:19.386Z,5.78
2022-11-25T14:40:54.589Z,6.13
2022-11-25T14:43:23.646Z,4.38
2022-11-25T14:46:10.727Z,6.90
2022-11-25T14:48:37.461Z,5.47
2022-11-25T14:51:09.891Z,4.85
2022-11-25T14:53:48.305Z,4.55
2022-11-25T14:56:21.246Z,4.47
2022-11-25T14:58:51.163Z,5.10
2022-11-25T15:01:21.199Z,4.80
2022-11-25T15:03:52.453Z,4.38
2022-11-25T15:06:20.969Z,4.32
2022-11-25T15:08:57.435Z,5.88
2022-11-25T15:11:26.447Z,4.85
2022-11-25T15:14:01.204Z,6.20
2022-11-25T15:16:37.045Z,5.07
2022-11-25T15:19:05.860Z,4.78
2022-11-25T15:21:59.992Z,5.45
2022-11-25T15:24:54.501Z,5.25
2022-11-25T15:27:27.605Z,4.82
2022-11-25T15:29:55.899Z,4.32
2022-11-25T15:32:25.672Z,5.47
2022-11-25T15:34:53.683Z,5.57
2022-11-25T15:37:20.370Z,4.20
2022-11-25T15:39:46.844Z,5.22
2022-11-25T15:42:20.120Z,4.68
2022-11-25T15:44:55.159Z,4.90
2022-11-25T15:47:27.356Z,4.60
2022-11-25T15:50:05.549Z,5.68
2022-11-25T15:52:34.993Z,5.28
2022-11-25T15:55:30.822Z,5.40
2022-11-25T15:58:22.359Z,5.35
2022-11-25T16:01:00.839Z,5.35
2022-11-25T16:03:27.341Z,5.40
2022-11-25T16:05:57.095Z,5.53
2022-11-25T16:08:37.364Z,4.35
2022-11-25T16:11:12.477Z,4.63
2022-11-25T16:13:39.662Z,3.83
2022-11-25T16:16:41.073Z,5.57
2022-11-25T16:19:13.693Z,4.57
2022-11-25T16:22:00.823Z,4.68
2022-11-25T16:24:32.764Z,5.35
2022-11-25T16:27:14.405Z,4.70
2022-11-25T16:29:52.474Z,4.20
2022-11-25T16:32:27.776Z,5.68
2022-11-25T16:35:06.321Z,7.05
2022-11-25T16:37:32.810Z,4.80
2022-11-25T16:39:59.205Z,4.63
2022-11-25T16:42:25.598Z,5.72
2022-11-25T16:44:52.361Z,4.65
2022-11-25T16:47:20.276Z,4.63
2022-11-25T16:49:46.948Z,6.05
2022-11-25T16:52:13.881Z,5.72
2022-11-25T16:54:40.997Z,6.93
2022-11-25T16:57:07.697Z,5.90
2022-11-25T16:59:38.034Z,6.47
2022-11-25T17:02:14.785Z,6.60
2022-11-25T17:04:41.256Z,7.07
2022-11-25T17:07:31.511Z,7.97
2022-11-25T17:09:58.965Z,7.22
2022-11-25T17:12:28.960Z,7.25
2022-11-25T17:14:55.475Z,10.27
2022-11-25T17:17:24.741Z,8.70
2022-11-25T17:19:53.570Z,7.80
2022-11-25T17:22:23.416Z,8.63
2022-11-25T17:24:49.880Z,9.35
2022-11-25T17:27:22.660Z,11.13
2022-11-25T17:29:49.266Z,9.55
2022-11-25T17:32:16.460Z,11.18
2022-11-25T17:34:42.955Z,8.52
2022-11-25T17:37:13.919Z,9.05
2022-11-25T17:42:06.791Z,7.22
2022-11-25T17:44:33.313Z,8.68
2022-11-25T17:46:59.903Z,9.10
2022-11-25T17:49:26.261Z,9.85
2022-11-25T17:51:53.349Z,10.38
2022-11-25T17:54:19.824Z,8.40
2022-11-25T17:56:52.037Z,9.73
2022-11-25T17:59:30.444Z,8.82
2022-11-25T18:01:59.111Z,8.73
2022-11-25T18:04:27.910Z,8.13
2022-11-25T18:06:54.360Z,8.68
2022-11-25T18:09:20.779Z,8.13
2022-11-25T18:11:50.005Z,9.23
2022-11-25T18:14:22.259Z,8.80
2022-11-25T18:16:48.740Z,8.20
2022-11-25T18:19:15.237Z,9.18
2022-11-25T18:21:41.700Z,9.73
2022-11-25T18:24:08.118Z,9.85
2022-11-25T18:26:41.491Z,9.45
2022-11-25T18:29:16.524Z,8.73
2022-11-25T18:31:44.653Z,9.10
2022-11-25T18:34:17.859Z,8.88
2022-11-25T18:36:44.991Z,9.02
2022-11-25T18:39:12.025Z,9.85
2022-11-25T18:41:39.489Z,12.35
2022-11-25T18:44:07.011Z,10.95
2022-11-25T18:46:36.019Z,10.82
2022-11-25T18:49:12.764Z,10.90
2022-11-25T18:51:39.665Z,9.27
2022-11-25T18:54:06.144Z,9.07
2022-11-25T18:56:34.006Z,9.00
2022-11-25T18:59:01.446Z,9.00
2022-11-25T19:01:28.312Z,7.70
2022-11-25T19:03:55.401Z,8.48
2022-11-25T19:06:22.495Z,9.48
2022-11-25T19:08:52.280Z,10.00
2022-11-25T19:11:28.240Z,8.13
2022-11-25T19:13:59.225Z,9.75
2022-11-25T19:18:52.137Z,9.30
2022-11-25T19:21:20.752Z,9.77
2022-11-25T19:23:47.765Z,9.15
2022-11-25T19:26:25.145Z,10.05
2022-11-25T19:28:55.933Z,9.48
2022-11-25T19:31:22.532Z,10.32
2022-11-25T19:33:50.473Z,12.02
2022-11-25T19:36:25.163Z,10.52
2022-11-25T19:38:52.617Z,10.65
2022-11-25T19:41:19.743Z,9.25
2022-11-25T19:43:46.185Z,11.10
2022-11-25T19:46:29.388Z,10.80
2022-11-25T19:48:58.842Z,10.43
2022-11-25T19:51:27.209Z,10.18
2022-11-25T19:53:53.641Z,10.88
2022-11-25T19:56:24.075Z,11.27
2022-11-25T19:58:50.961Z,11.38
2022-11-25T20:01:17.736Z,9.60
2022-11-25T20:03:47.970Z,10.65
2022-11-25T20:06:16.708Z,12.93
2022-11-25T20:08:43.510Z,12.57
2022-11-25T20:11:17.476Z,12.07
2022-11-25T20:13:44.933Z,13.32
2022-11-25T20:16:15.785Z,12.55
2022-11-25T20:18:42.511Z,14.05
2022-11-25T20:21:17.682Z,12.15
2022-11-25T20:23:44.648Z,12.23
2022-11-25T20:26:28.007Z,13.55
2022-11-25T20:28:54.413Z,15.15
2022-11-25T20:31:20.952Z,15.57
2022-11-25T20:33:48.438Z,19.33
2022-11-25T20:36:17.615Z,17.92
2022-11-25T20:38:54.320Z,16.33
2022-11-25T20:41:27.296Z,15.75
2022-11-25T20:43:55.049Z,16.67
2022-11-25T20:46:28.966Z,14.98
2022-11-25T20:48:57.644Z,16.38
2022-11-25T20:51:24.319Z,15.55
2022-11-25T20:53:56.835Z,15.35
2022-11-25T20:56:25.411Z,15.07
2022-11-25T20:58:52.051Z,15.38
2022-11-25T21:01:21.540Z,17.10
2022-11-25T21:03:49.491Z,15.25
2022-11-25T21:06:21.840Z,15.27
2022-11-25T21:08:49.780Z,17.02
2022-11-25T21:11:17.076Z,15.73
2022-11-25T21:13:43.645Z,16.15
2022-11-25T21:16:10.319Z,16.05
2022-11-25T21:18:36.729Z,16.48
2022-11-25T21:21:03.501Z,16.13
2022-11-25T21:23:37.036Z,15.40
2022-11-25T21:26:10.932Z,15.63
2022-11-25T21:28:43.757Z,16.05
2022-11-25T21:31:16.654Z,16.88
2022-11-25T21:33:46.808Z,15.88
2022-11-25T21:36:18.979Z,18.03
2022-11-25T21:38:46.836Z,15.80
2022-11-25T21:41:13.597Z,15.20
2022-11-25T21:43:42.527Z,16.90
2022-11-25T21:46:14.312Z,17.70
2022-11-25T21:48:40.827Z,18.85
2022-11-25T21:51:10.177Z,17.60
2022-11-25T21:53:37.615Z,17.02
2022-11-25T21:56:06.399Z,19.40
2022-11-25T21:58:33.070Z,18.67
2022-11-25T22:01:02.134Z,19.20
2022-11-25T22:03:31.009Z,18.85
2022-11-25T22:05:57.477Z,16.27
2022-11-25T22:08:24.142Z,17.77
2022-11-25T22:10:52.772Z,16.00
2022-11-25T22:13:26.877Z,16.33
2022-11-25T22:15:58.269Z,16.95
2022-11-25T22:18:45.106Z,16.45
2022-11-25T22:21:12.725Z,17.23
2022-11-25T22:23:39.392Z,16.55
2022-11-25T22:26:06.494Z,16.52
2022-11-25T22:28:34.079Z,17.98
2022-11-25T22:31:03.127Z,17.15
2022-11-25T22:33:32.102Z,17.90
2022-11-25T22:35:58.813Z,18.15
2022-11-25T22:38:25.380Z,17.92
2022-11-25T22:41:01.320Z,18.90
2022-11-25T22:43:31.124Z,19.10
2022-11-25T22:45:57.702Z,19.58
2022-11-25T22:48:35.474Z,21.15
2022-11-25T22:51:02.242Z,22.00
2022-11-25T22:53:29.191Z,21.08
2022-11-25T22:55:57.967Z,19.65
2022-11-25T22:58:26.647Z,20.17
2022-11-25T23:00:54.946Z,19.20
2022-11-25T23:03:29.530Z,20.00
2022-11-25T23:05:57.027Z,20.35
2022-11-25T23:08:28.490Z,19.60
2022-11-25T23:10:55.674Z,18.30
2022-11-25T23:13:22.177Z,20.48
2022-11-25T23:16:00.130Z,21.70
2022-11-25T23:18:38.130Z,18.90
2022-11-25T23:21:06.845Z,21.08
2022-11-25T23:23:33.289Z,21.92
2022-11-25T23:25:59.950Z,20.83
2022-11-25T23:28:26.403Z,21.20
2022-11-25T23:30:54.677Z,20.38
2022-11-25T23:33:36.926Z,20.92
2022-11-25T23:36:15.841Z,20.67
2022-11-25T23:38:44.717Z,22.08
2022-11-25T23:41:22.614Z,22.52
2022-11-25T23:43:49.549Z,22.58
2022-11-25T23:46:17.917Z,21.17
2022-11-25T23:48:47.740Z,22.77
2022-11-25T23:51:14.160Z,21.33
2022-11-25T23:53:41.133Z,22.48
2022-11-25T23:56:07.647Z,21.15
2022-11-25T23:58:34.100Z,21.52
